sensor_id;sensor_type;location;lat;lon;timestamp;P1;durP1;ratioP1;P2;durP2;ratioP2
48263;SDS011;34086;51.076;13.722;2022-10-16T00:00:55;29.15;;;23.35;;
48263;SDS011;34086;51.076;13.722;2022-10-16T00:01:55;32.20;;;24.80;;
48263;SDS011;34086;51.076;13.722;2022-10-16T00:02:56;32.10;;;24.17;;
48263;SDS011;34086;51.076;13.722;2022-10-16T00:03:58;31.52;;;24.55;;
48263;SDS011;34086;51.076;13.722;2022-10-16T00:05:00;30.63;;;24.08;;
48263;SDS011;34086;51.076;13.722;2022-10-16T00:06:00;28.73;;;23.10;;
48263;SDS011;34086;51.076;13.722;2022-10-16T00:07:01;31.98;;;25.05;;
48263;SDS011;34086;51.076;13.722;2022-10-16T00:08:02;32.97;;;25.85;;
48263;SDS011;34086;51.076;13.722;2022-10-16T00:09:03;36.13;;;26.88;;
48263;SDS011;34086;51.076;13.722;2022-10-16T00:10:04;32.65;;;25.63;;
48263;SDS011;34086;51.076;13.722;2022-10-16T00:11:10;33.75;;;25.95;;
48263;SDS011;34086;51.076;13.722;2022-10-16T00:12:12;32.70;;;24.25;;
48263;SDS011;34086;51.076;13.722;2022-10-16T00:13:13;30.30;;;24.38;;
48263;SDS011;34086;51.076;13.722;2022-10-16T00:14:14;29.17;;;23.52;;
48263;SDS011;34086;51.076;13.722;2022-10-16T00:15:15;28.90;;;22.77;;
48263;SDS011;34086;51.076;13.722;2022-10-16T00:16:16;26.10;;;21.25;;
48263;SDS011;34086;51.076;13.722;2022-10-16T00:17:17;27.05;;;21.52;;
48263;SDS011;34086;51.076;13.722;2022-10-16T00:18:18;26.88;;;21.55;;
48263;SDS011;34086;51.076;13.722;2022-10-16T00:19:18;25.65;;;20.58;;
48263;SDS011;34086;51.076;13.722;2022-10-16T00:20:19;23.88;;;19.95;;
48263;SDS011;34086;51.076;13.722;2022-10-16T00:21:21;25.88;;;20.70;;
48263;SDS011;34086;51.076;13.722;2022-10-16T00:22:23;25.08;;;20.50;;
48263;SDS011;34086;51.076;13.722;2022-10-16T00:23:24;25.95;;;20.90;;
48263;SDS011;34086;51.076;13.722;2022-10-16T00:24:25;24.48;;;20.50;;
48263;SDS011;34086;51.076;13.722;2022-10-16T00:25:25;26.67;;;21.25;;
48263;SDS011;34086;51.076;13.722;2022-10-16T00:26:26;26.52;;;21.08;;
48263;SDS011;34086;51.076;13.722;2022-10-16T00:27:28;26.42;;;21.20;;
48263;SDS011;34086;51.076;13.722;2022-10-16T00:28:29;25.45;;;20.75;;
48263;SDS011;34086;51.076;13.722;2022-10-16T00:29:30;27.88;;;20.85;;
48263;SDS011;34086;51.076;13.722;2022-10-16T00:30:31;25.58;;;20.63;;
48263;SDS011;34086;51.076;13.722;2022-10-16T00:31:32;24.98;;;20.48;;
48263;SDS011;34086;51.076;13.722;2022-10-16T00:32:33;25.30;;;20.40;;
48263;SDS011;34086;51.076;13.722;2022-10-16T00:33:34;24.85;;;19.83;;
48263;SDS011;34086;51.076;13.722;2022-10-16T00:34:35;25.50;;;19.67;;
48263;SDS011;34086;51.076;13.722;2022-10-16T00:35:36;25.73;;;20.67;;
48263;SDS011;34086;51.076;13.722;2022-10-16T00:36:37;25.45;;;19.92;;
48263;SDS011;34086;51.076;13.722;2022-10-16T00:37:37;25.10;;;19.95;;
48263;SDS011;34086;51.076;13.722;2022-10-16T00:38:38;25.52;;;20.20;;
48263;SDS011;34086;51.076;13.722;2022-10-16T00:39:39;24.83;;;19.80;;
48263;SDS011;34086;51.076;13.722;2022-10-16T00:40:40;23.42;;;19.45;;
48263;SDS011;34086;51.076;13.722;2022-10-16T00:41:40;23.20;;;19.20;;
48263;SDS011;34086;51.076;13.722;2022-10-16T00:42:41;25.15;;;20.05;;
48263;SDS011;34086;51.076;13.722;2022-10-16T00:43:43;23.35;;;19.13;;
48263;SDS011;34086;51.076;13.722;2022-10-16T00:44:46;23.65;;;19.55;;
48263;SDS011;34086;51.076;13.722;2022-10-16T00:45:54;24.27;;;19.33;;
48263;SDS011;34086;51.076;13.722;2022-10-16T00:46:54;24.58;;;19.55;;
48263;SDS011;34086;51.076;13.722;2022-10-16T00:47:55;23.83;;;19.05;;
48263;SDS011;34086;51.076;13.722;2022-10-16T00:50:33;24.48;;;19.58;;
48263;SDS011;34086;51.076;13.722;2022-10-16T00:51:35;22.30;;;18.25;;
48263;SDS011;34086;51.076;13.722;2022-10-16T00:52:38;24.38;;;18.67;;
48263;SDS011;34086;51.076;13.722;2022-10-16T00:53:42;22.63;;;18.38;;
48263;SDS011;34086;51.076;13.722;2022-10-16T00:54:44;23.13;;;18.65;;
48263;SDS011;34086;51.076;13.722;2022-10-16T00:55:46;23.30;;;18.65;;
48263;SDS011;34086;51.076;13.722;2022-10-16T00:56:49;22.60;;;18.25;;
48263;SDS011;34086;51.076;13.722;2022-10-16T00:57:51;24.33;;;18.63;;
48263;SDS011;34086;51.076;13.722;2022-10-16T00:58:52;22.65;;;18.67;;
48263;SDS011;34086;51.076;13.722;2022-10-16T00:59:53;25.00;;;20.20;;
48263;SDS011;34086;51.076;13.722;2022-10-16T01:00:54;24.48;;;19.83;;
48263;SDS011;34086;51.076;13.722;2022-10-16T01:01:55;23.23;;;18.98;;
48263;SDS011;34086;51.076;13.722;2022-10-16T01:02:58;24.52;;;20.50;;
48263;SDS011;34086;51.076;13.722;2022-10-16T01:04:00;23.73;;;19.67;;
48263;SDS011;34086;51.076;13.722;2022-10-16T01:05:01;24.23;;;20.02;;
48263;SDS011;34086;51.076;13.722;2022-10-16T01:10:52;25.00;;;20.90;;
48263;SDS011;34086;51.076;13.722;2022-10-16T01:12:12;23.60;;;19.70;;
48263;SDS011;34086;51.076;13.722;2022-10-16T01:13:27;24.75;;;19.58;;
48263;SDS011;34086;51.076;13.722;2022-10-16T01:14:53;25.85;;;20.02;;
48263;SDS011;34086;51.076;13.722;2022-10-16T01:16:15;24.42;;;19.80;;
48263;SDS011;34086;51.076;13.722;2022-10-16T01:18:57;22.25;;;18.60;;
48263;SDS011;34086;51.076;13.722;2022-10-16T01:21:20;22.63;;;18.55;;
48263;SDS011;34086;51.076;13.722;2022-10-16T01:22:28;22.63;;;18.73;;
48263;SDS011;34086;51.076;13.722;2022-10-16T01:24:00;21.58;;;17.50;;
48263;SDS011;34086;51.076;13.722;2022-10-16T01:26:07;19.80;;;17.17;;
48263;SDS011;34086;51.076;13.722;2022-10-16T01:27:18;20.52;;;17.73;;
48263;SDS011;34086;51.076;13.722;2022-10-16T01:28:32;22.88;;;17.50;;
48263;SDS011;34086;51.076;13.722;2022-10-16T01:29:48;24.23;;;20.15;;
48263;SDS011;34086;51.076;13.722;2022-10-16T01:30:59;24.40;;;20.05;;
48263;SDS011;34086;51.076;13.722;2022-10-16T01:32:04;24.10;;;19.55;;
48263;SDS011;34086;51.076;13.722;2022-10-16T01:33:24;23.50;;;20.13;;
48263;SDS011;34086;51.076;13.722;2022-10-16T01:35:04;25.35;;;20.75;;
48263;SDS011;34086;51.076;13.722;2022-10-16T01:36:15;23.35;;;19.67;;
48263;SDS011;34086;51.076;13.722;2022-10-16T01:37:31;25.73;;;20.80;;
48263;SDS011;34086;51.076;13.722;2022-10-16T01:38:37;27.60;;;22.52;;
48263;SDS011;34086;51.076;13.722;2022-10-16T01:39:39;28.25;;;22.75;;
48263;SDS011;34086;51.076;13.722;2022-10-16T01:40:45;26.17;;;21.90;;
48263;SDS011;34086;51.076;13.722;2022-10-16T01:43:23;25.92;;;21.20;;
48263;SDS011;34086;51.076;13.722;2022-10-16T01:44:29;23.73;;;20.15;;
48263;SDS011;34086;51.076;13.722;2022-10-16T01:45:36;22.88;;;19.50;;
48263;SDS011;34086;51.076;13.722;2022-10-16T01:46:39;23.00;;;19.75;;
48263;SDS011;34086;51.076;13.722;2022-10-16T01:47:42;23.33;;;19.77;;
48263;SDS011;34086;51.076;13.722;2022-10-16T01:48:44;24.05;;;20.65;;
48263;SDS011;34086;51.076;13.722;2022-10-16T01:49:45;25.25;;;21.60;;
48263;SDS011;34086;51.076;13.722;2022-10-16T01:50:55;27.13;;;22.05;;
48263;SDS011;34086;51.076;13.722;2022-10-16T01:52:04;26.30;;;22.35;;
48263;SDS011;34086;51.076;13.722;2022-10-16T01:53:08;25.70;;;21.75;;
48263;SDS011;34086;51.076;13.722;2022-10-16T01:54:12;23.25;;;20.30;;
48263;SDS011;34086;51.076;13.722;2022-10-16T01:55:18;23.08;;;20.15;;
48263;SDS011;34086;51.076;13.722;2022-10-16T01:56:24;27.02;;;20.73;;
48263;SDS011;34086;51.076;13.722;2022-10-16T01:57:26;23.80;;;20.08;;
48263;SDS011;34086;51.076;13.722;2022-10-16T01:58:28;22.58;;;19.50;;
48263;SDS011;34086;51.076;13.722;2022-10-16T01:59:35;22.70;;;19.38;;
48263;SDS011;34086;51.076;13.722;2022-10-16T02:00:43;28.23;;;23.05;;
48263;SDS011;34086;51.076;13.722;2022-10-16T02:01:50;24.88;;;20.98;;
48263;SDS011;34086;51.076;13.722;2022-10-16T02:02:54;23.25;;;20.02;;
48263;SDS011;34086;51.076;13.722;2022-10-16T02:03:58;23.63;;;20.30;;
48263;SDS011;34086;51.076;13.722;2022-10-16T02:06:03;25.13;;;21.33;;
48263;SDS011;34086;51.076;13.722;2022-10-16T02:06:33;25.92;;;21.45;;
48263;SDS011;34086;51.076;13.722;2022-10-16T02:07:34;23.83;;;20.77;;
48263;SDS011;34086;51.076;13.722;2022-10-16T02:08:35;22.73;;;19.85;;
48263;SDS011;34086;51.076;13.722;2022-10-16T02:09:36;25.80;;;21.70;;
48263;SDS011;34086;51.076;13.722;2022-10-16T02:10:38;26.33;;;22.10;;
48263;SDS011;34086;51.076;13.722;2022-10-16T02:11:39;26.65;;;22.00;;
48263;SDS011;34086;51.076;13.722;2022-10-16T02:12:40;25.70;;;21.23;;
48263;SDS011;34086;51.076;13.722;2022-10-16T02:13:48;26.48;;;21.50;;
48263;SDS011;34086;51.076;13.722;2022-10-16T02:14:55;23.40;;;20.02;;
48263;SDS011;34086;51.076;13.722;2022-10-16T02:15:56;21.17;;;18.83;;
48263;SDS011;34086;51.076;13.722;2022-10-16T02:16:57;23.83;;;20.27;;
48263;SDS011;34086;51.076;13.722;2022-10-16T02:17:57;26.30;;;21.17;;
48263;SDS011;34086;51.076;13.722;2022-10-16T02:18:58;24.48;;;20.70;;
48263;SDS011;34086;51.076;13.722;2022-10-16T02:19:58;26.45;;;21.73;;
48263;SDS011;34086;51.076;13.722;2022-10-16T02:22:48;23.75;;;20.10;;
48263;SDS011;34086;51.076;13.722;2022-10-16T02:25:10;21.42;;;18.90;;
48263;SDS011;34086;51.076;13.722;2022-10-16T02:26:19;23.80;;;19.80;;
48263;SDS011;34086;51.076;13.722;2022-10-16T02:27:45;23.70;;;20.80;;
48263;SDS011;34086;51.076;13.722;2022-10-16T02:28:55;24.58;;;21.25;;
48263;SDS011;34086;51.076;13.722;2022-10-16T02:31:08;25.30;;;21.55;;
48263;SDS011;34086;51.076;13.722;2022-10-16T02:32:12;26.92;;;21.83;;
48263;SDS011;34086;51.076;13.722;2022-10-16T02:33:16;25.73;;;21.27;;
48263;SDS011;34086;51.076;13.722;2022-10-16T02:34:18;25.15;;;21.60;;
48263;SDS011;34086;51.076;13.722;2022-10-16T02:35:22;24.90;;;21.58;;
48263;SDS011;34086;51.076;13.722;2022-10-16T02:36:24;23.95;;;20.85;;
48263;SDS011;34086;51.076;13.722;2022-10-16T02:37:26;23.50;;;20.88;;
48263;SDS011;34086;51.076;13.722;2022-10-16T02:38:28;22.73;;;20.30;;
48263;SDS011;34086;51.076;13.722;2022-10-16T02:39:30;22.65;;;20.05;;
48263;SDS011;34086;51.076;13.722;2022-10-16T02:40:31;22.00;;;19.08;;
48263;SDS011;34086;51.076;13.722;2022-10-16T02:41:32;23.13;;;20.02;;
48263;SDS011;34086;51.076;13.722;2022-10-16T02:42:36;21.67;;;19.20;;
48263;SDS011;34086;51.076;13.722;2022-10-16T02:43:38;23.52;;;20.83;;
48263;SDS011;34086;51.076;13.722;2022-10-16T02:44:39;27.65;;;23.25;;
48263;SDS011;34086;51.076;13.722;2022-10-16T02:45:40;24.55;;;21.20;;
48263;SDS011;34086;51.076;13.722;2022-10-16T02:46:41;30.90;;;23.95;;
48263;SDS011;34086;51.076;13.722;2022-10-16T02:47:42;26.90;;;22.67;;
48263;SDS011;34086;51.076;13.722;2022-10-16T02:48:42;27.25;;;22.90;;
48263;SDS011;34086;51.076;13.722;2022-10-16T02:49:43;25.70;;;22.17;;
48263;SDS011;34086;51.076;13.722;2022-10-16T02:50:44;25.77;;;22.20;;
48263;SDS011;34086;51.076;13.722;2022-10-16T02:51:44;25.35;;;21.80;;
48263;SDS011;34086;51.076;13.722;2022-10-16T02:52:45;25.67;;;22.20;;
48263;SDS011;34086;51.076;13.722;2022-10-16T02:53:46;24.27;;;21.20;;
48263;SDS011;34086;51.076;13.722;2022-10-16T02:54:47;24.67;;;20.40;;
48263;SDS011;34086;51.076;13.722;2022-10-16T02:55:47;25.48;;;21.85;;
48263;SDS011;34086;51.076;13.722;2022-10-16T02:56:48;21.73;;;19.27;;
48263;SDS011;34086;51.076;13.722;2022-10-16T02:57:49;23.38;;;19.98;;
48263;SDS011;34086;51.076;13.722;2022-10-16T02:58:49;28.85;;;22.70;;
48263;SDS011;34086;51.076;13.722;2022-10-16T02:59:50;25.50;;;21.48;;
48263;SDS011;34086;51.076;13.722;2022-10-16T03:00:51;25.95;;;21.63;;
48263;SDS011;34086;51.076;13.722;2022-10-16T03:01:51;24.80;;;21.05;;
48263;SDS011;34086;51.076;13.722;2022-10-16T03:02:52;22.92;;;20.13;;
48263;SDS011;34086;51.076;13.722;2022-10-16T03:03:53;23.52;;;20.33;;
48263;SDS011;34086;51.076;13.722;2022-10-16T03:04:53;21.77;;;19.40;;
48263;SDS011;34086;51.076;13.722;2022-10-16T03:05:54;23.42;;;19.90;;
48263;SDS011;34086;51.076;13.722;2022-10-16T03:06:54;24.25;;;21.15;;
48263;SDS011;34086;51.076;13.722;2022-10-16T03:07:55;23.75;;;20.77;;
48263;SDS011;34086;51.076;13.722;2022-10-16T03:08:56;23.65;;;20.70;;
48263;SDS011;34086;51.076;13.722;2022-10-16T03:09:56;23.33;;;20.10;;
48263;SDS011;34086;51.076;13.722;2022-10-16T03:11:00;24.98;;;21.35;;
48263;SDS011;34086;51.076;13.722;2022-10-16T03:12:02;23.95;;;20.20;;
48263;SDS011;34086;51.076;13.722;2022-10-16T03:13:03;26.85;;;23.10;;
48263;SDS011;34086;51.076;13.722;2022-10-16T03:14:04;24.50;;;20.27;;
48263;SDS011;34086;51.076;13.722;2022-10-16T03:15:05;24.27;;;20.38;;
48263;SDS011;34086;51.076;13.722;2022-10-16T03:16:07;23.33;;;20.27;;
48263;SDS011;34086;51.076;13.722;2022-10-16T03:17:07;22.25;;;19.58;;
48263;SDS011;34086;51.076;13.722;2022-10-16T03:18:08;21.05;;;18.73;;
48263;SDS011;34086;51.076;13.722;2022-10-16T03:19:09;22.70;;;20.20;;
48263;SDS011;34086;51.076;13.722;2022-10-16T03:20:09;27.42;;;21.83;;
48263;SDS011;34086;51.076;13.722;2022-10-16T03:21:10;23.30;;;20.30;;
48263;SDS011;34086;51.076;13.722;2022-10-16T03:22:10;23.73;;;20.77;;
48263;SDS011;34086;51.076;13.722;2022-10-16T03:23:11;22.85;;;20.30;;
48263;SDS011;34086;51.076;13.722;2022-10-16T03:24:12;23.17;;;19.80;;
48263;SDS011;34086;51.076;13.722;2022-10-16T03:25:13;22.88;;;19.50;;
48263;SDS011;34086;51.076;13.722;2022-10-16T03:26:13;21.45;;;19.10;;
48263;SDS011;34086;51.076;13.722;2022-10-16T03:27:14;21.40;;;19.10;;
48263;SDS011;34086;51.076;13.722;2022-10-16T03:28:15;21.30;;;19.00;;
48263;SDS011;34086;51.076;13.722;2022-10-16T03:29:15;22.33;;;19.67;;
48263;SDS011;34086;51.076;13.722;2022-10-16T03:30:16;22.33;;;19.20;;
48263;SDS011;34086;51.076;13.722;2022-10-16T03:31:17;23.40;;;20.38;;
48263;SDS011;34086;51.076;13.722;2022-10-16T03:32:17;27.67;;;22.45;;
48263;SDS011;34086;51.076;13.722;2022-10-16T03:33:18;25.52;;;22.33;;
48263;SDS011;34086;51.076;13.722;2022-10-16T03:34:19;26.85;;;22.38;;
48263;SDS011;34086;51.076;13.722;2022-10-16T03:35:20;26.05;;;22.00;;
48263;SDS011;34086;51.076;13.722;2022-10-16T03:36:22;27.75;;;23.42;;
48263;SDS011;34086;51.076;13.722;2022-10-16T03:37:23;26.38;;;21.95;;
48263;SDS011;34086;51.076;13.722;2022-10-16T03:38:23;23.73;;;20.88;;
48263;SDS011;34086;51.076;13.722;2022-10-16T03:39:24;25.88;;;21.98;;
48263;SDS011;34086;51.076;13.722;2022-10-16T03:40:25;23.60;;;20.38;;
48263;SDS011;34086;51.076;13.722;2022-10-16T03:41:26;23.70;;;20.83;;
48263;SDS011;34086;51.076;13.722;2022-10-16T03:42:26;24.15;;;20.67;;
48263;SDS011;34086;51.076;13.722;2022-10-16T03:43:27;22.33;;;18.95;;
48263;SDS011;34086;51.076;13.722;2022-10-16T03:44:28;22.75;;;20.05;;
48263;SDS011;34086;51.076;13.722;2022-10-16T03:45:28;22.90;;;19.67;;
48263;SDS011;34086;51.076;13.722;2022-10-16T03:46:29;22.25;;;19.85;;
48263;SDS011;34086;51.076;13.722;2022-10-16T03:47:30;22.02;;;19.20;;
48263;SDS011;34086;51.076;13.722;2022-10-16T03:48:32;21.80;;;19.13;;
48263;SDS011;34086;51.076;13.722;2022-10-16T03:49:33;21.33;;;18.58;;
48263;SDS011;34086;51.076;13.722;2022-10-16T03:50:34;20.88;;;18.55;;
48263;SDS011;34086;51.076;13.722;2022-10-16T03:51:34;20.45;;;18.15;;
48263;SDS011;34086;51.076;13.722;2022-10-16T03:52:35;20.88;;;18.45;;
48263;SDS011;34086;51.076;13.722;2022-10-16T03:53:36;21.65;;;18.58;;
48263;SDS011;34086;51.076;13.722;2022-10-16T03:54:37;21.75;;;18.60;;
48263;SDS011;34086;51.076;13.722;2022-10-16T03:55:37;20.40;;;18.20;;
48263;SDS011;34086;51.076;13.722;2022-10-16T03:56:38;19.60;;;17.42;;
48263;SDS011;34086;51.076;13.722;2022-10-16T03:57:38;20.88;;;18.23;;
48263;SDS011;34086;51.076;13.722;2022-10-16T03:58:39;21.23;;;18.27;;
48263;SDS011;34086;51.076;13.722;2022-10-16T03:59:40;21.88;;;19.08;;
48263;SDS011;34086;51.076;13.722;2022-10-16T04:00:44;24.35;;;19.65;;
48263;SDS011;34086;51.076;13.722;2022-10-16T04:01:45;22.40;;;19.40;;
48263;SDS011;34086;51.076;13.722;2022-10-16T04:02:46;22.83;;;18.85;;
48263;SDS011;34086;51.076;13.722;2022-10-16T04:03:46;23.50;;;19.48;;
48263;SDS011;34086;51.076;13.722;2022-10-16T04:04:47;22.50;;;19.52;;
48263;SDS011;34086;51.076;13.722;2022-10-16T04:05:47;22.30;;;19.75;;
48263;SDS011;34086;51.076;13.722;2022-10-16T04:06:48;22.35;;;19.33;;
48263;SDS011;34086;51.076;13.722;2022-10-16T04:07:49;22.92;;;19.88;;
48263;SDS011;34086;51.076;13.722;2022-10-16T04:08:50;23.02;;;19.98;;
48263;SDS011;34086;51.076;13.722;2022-10-16T04:09:50;24.25;;;20.50;;
48263;SDS011;34086;51.076;13.722;2022-10-16T04:10:52;24.17;;;19.85;;
48263;SDS011;34086;51.076;13.722;2022-10-16T04:11:52;24.73;;;21.40;;
48263;SDS011;34086;51.076;13.722;2022-10-16T04:12:53;24.42;;;21.00;;
48263;SDS011;34086;51.076;13.722;2022-10-16T04:13:57;25.65;;;21.13;;
48263;SDS011;34086;51.076;13.722;2022-10-16T04:14:57;24.25;;;20.98;;
48263;SDS011;34086;51.076;13.722;2022-10-16T04:15:58;23.95;;;21.02;;
48263;SDS011;34086;51.076;13.722;2022-10-16T04:16:59;24.30;;;20.50;;
48263;SDS011;34086;51.076;13.722;2022-10-16T04:17:59;24.45;;;20.90;;
48263;SDS011;34086;51.076;13.722;2022-10-16T04:19:00;25.25;;;21.40;;
48263;SDS011;34086;51.076;13.722;2022-10-16T04:20:01;23.50;;;20.13;;
48263;SDS011;34086;51.076;13.722;2022-10-16T04:21:03;23.45;;;19.90;;
48263;SDS011;34086;51.076;13.722;2022-10-16T04:22:04;22.73;;;19.77;;
48263;SDS011;34086;51.076;13.722;2022-10-16T04:23:05;22.83;;;19.65;;
48263;SDS011;34086;51.076;13.722;2022-10-16T04:24:06;21.67;;;19.27;;
48263;SDS011;34086;51.076;13.722;2022-10-16T04:25:06;22.48;;;19.30;;
48263;SDS011;34086;51.076;13.722;2022-10-16T04:26:07;22.10;;;19.00;;
48263;SDS011;34086;51.076;13.722;2022-10-16T04:27:08;21.92;;;19.38;;
48263;SDS011;34086;51.076;13.722;2022-10-16T04:28:09;26.05;;;21.50;;
48263;SDS011;34086;51.076;13.722;2022-10-16T04:29:10;23.45;;;20.58;;
48263;SDS011;34086;51.076;13.722;2022-10-16T04:30:10;23.80;;;20.60;;
48263;SDS011;34086;51.076;13.722;2022-10-16T04:31:11;23.95;;;21.27;;
48263;SDS011;34086;51.076;13.722;2022-10-16T04:32:12;28.20;;;24.63;;
48263;SDS011;34086;51.076;13.722;2022-10-16T04:33:12;27.27;;;23.13;;
48263;SDS011;34086;51.076;13.722;2022-10-16T04:34:13;27.02;;;22.90;;
48263;SDS011;34086;51.076;13.722;2022-10-16T04:35:14;27.55;;;22.67;;
48263;SDS011;34086;51.076;13.722;2022-10-16T04:36:14;28.95;;;24.02;;
48263;SDS011;34086;51.076;13.722;2022-10-16T04:37:15;26.52;;;23.58;;
48263;SDS011;34086;51.076;13.722;2022-10-16T04:38:16;27.30;;;23.58;;
48263;SDS011;34086;51.076;13.722;2022-10-16T04:39:17;24.48;;;21.88;;
48263;SDS011;34086;51.076;13.722;2022-10-16T04:40:17;24.45;;;21.85;;
48263;SDS011;34086;51.076;13.722;2022-10-16T04:41:18;25.02;;;22.33;;
48263;SDS011;34086;51.076;13.722;2022-10-16T04:42:19;24.95;;;22.08;;
48263;SDS011;34086;51.076;13.722;2022-10-16T04:43:20;25.08;;;21.58;;
48263;SDS011;34086;51.076;13.722;2022-10-16T04:44:21;24.00;;;21.50;;
48263;SDS011;34086;51.076;13.722;2022-10-16T04:45:22;24.35;;;21.70;;
48263;SDS011;34086;51.076;13.722;2022-10-16T04:46:22;24.25;;;21.40;;
48263;SDS011;34086;51.076;13.722;2022-10-16T04:47:23;23.20;;;20.80;;
48263;SDS011;34086;51.076;13.722;2022-10-16T04:48:23;24.42;;;21.83;;
48263;SDS011;34086;51.076;13.722;2022-10-16T04:49:24;23.88;;;21.27;;
48263;SDS011;34086;51.076;13.722;2022-10-16T04:50:25;24.83;;;21.63;;
48263;SDS011;34086;51.076;13.722;2022-10-16T04:51:38;26.83;;;23.48;;
48263;SDS011;34086;51.076;13.722;2022-10-16T04:52:39;25.73;;;22.38;;
48263;SDS011;34086;51.076;13.722;2022-10-16T04:53:40;25.10;;;22.40;;
48263;SDS011;34086;51.076;13.722;2022-10-16T04:54:40;24.10;;;21.23;;
48263;SDS011;34086;51.076;13.722;2022-10-16T04:55:41;24.65;;;21.95;;
48263;SDS011;34086;51.076;13.722;2022-10-16T04:56:42;23.67;;;21.08;;
48263;SDS011;34086;51.076;13.722;2022-10-16T04:57:46;22.73;;;20.10;;
48263;SDS011;34086;51.076;13.722;2022-10-16T04:58:47;23.75;;;20.25;;
48263;SDS011;34086;51.076;13.722;2022-10-16T04:59:48;23.40;;;20.83;;
48263;SDS011;34086;51.076;13.722;2022-10-16T05:00:48;25.63;;;22.05;;
48263;SDS011;34086;51.076;13.722;2022-10-16T05:01:49;26.20;;;22.85;;
48263;SDS011;34086;51.076;13.722;2022-10-16T05:02:50;25.77;;;22.92;;
48263;SDS011;34086;51.076;13.722;2022-10-16T05:03:51;28.67;;;24.02;;
48263;SDS011;34086;51.076;13.722;2022-10-16T05:04:51;28.20;;;23.65;;
48263;SDS011;34086;51.076;13.722;2022-10-16T05:05:52;28.40;;;23.15;;
48263;SDS011;34086;51.076;13.722;2022-10-16T05:06:53;28.15;;;23.40;;
48263;SDS011;34086;51.076;13.722;2022-10-16T05:07:53;26.92;;;23.02;;
48263;SDS011;34086;51.076;13.722;2022-10-16T05:08:54;25.10;;;21.80;;
48263;SDS011;34086;51.076;13.722;2022-10-16T05:09:55;23.10;;;20.60;;
48263;SDS011;34086;51.076;13.722;2022-10-16T05:10:55;22.02;;;19.65;;
48263;SDS011;34086;51.076;13.722;2022-10-16T05:11:56;23.45;;;20.77;;
48263;SDS011;34086;51.076;13.722;2022-10-16T05:12:57;22.67;;;20.27;;
48263;SDS011;34086;51.076;13.722;2022-10-16T05:13:57;22.10;;;19.73;;
48263;SDS011;34086;51.076;13.722;2022-10-16T05:14:58;21.80;;;19.50;;
48263;SDS011;34086;51.076;13.722;2022-10-16T05:15:59;21.73;;;19.27;;
48263;SDS011;34086;51.076;13.722;2022-10-16T05:17:00;21.42;;;18.73;;
48263;SDS011;34086;51.076;13.722;2022-10-16T05:18:00;20.65;;;18.52;;
48263;SDS011;34086;51.076;13.722;2022-10-16T05:19:01;20.60;;;18.40;;
48263;SDS011;34086;51.076;13.722;2022-10-16T05:20:02;22.48;;;20.08;;
48263;SDS011;34086;51.076;13.722;2022-10-16T05:21:03;23.08;;;20.58;;
48263;SDS011;34086;51.076;13.722;2022-10-16T05:22:04;22.65;;;20.15;;
48263;SDS011;34086;51.076;13.722;2022-10-16T05:23:05;23.27;;;20.45;;
48263;SDS011;34086;51.076;13.722;2022-10-16T05:24:05;22.58;;;20.17;;
48263;SDS011;34086;51.076;13.722;2022-10-16T05:25:06;22.73;;;19.75;;
48263;SDS011;34086;51.076;13.722;2022-10-16T05:26:07;22.33;;;19.92;;
48263;SDS011;34086;51.076;13.722;2022-10-16T05:27:08;22.35;;;19.52;;
48263;SDS011;34086;51.076;13.722;2022-10-16T05:28:09;20.45;;;18.33;;
48263;SDS011;34086;51.076;13.722;2022-10-16T05:29:10;21.90;;;18.98;;
48263;SDS011;34086;51.076;13.722;2022-10-16T05:30:10;21.40;;;19.08;;
48263;SDS011;34086;51.076;13.722;2022-10-16T05:31:11;21.90;;;19.40;;
48263;SDS011;34086;51.076;13.722;2022-10-16T05:32:12;21.75;;;19.30;;
48263;SDS011;34086;51.076;13.722;2022-10-16T05:33:16;24.25;;;20.73;;
48263;SDS011;34086;51.076;13.722;2022-10-16T05:34:17;22.45;;;19.70;;
48263;SDS011;34086;51.076;13.722;2022-10-16T05:35:18;25.67;;;21.58;;
48263;SDS011;34086;51.076;13.722;2022-10-16T05:36:19;24.40;;;21.35;;
48263;SDS011;34086;51.076;13.722;2022-10-16T05:37:20;24.30;;;21.15;;
48263;SDS011;34086;51.076;13.722;2022-10-16T05:38:20;23.80;;;21.23;;
48263;SDS011;34086;51.076;13.722;2022-10-16T05:39:21;22.90;;;20.38;;
48263;SDS011;34086;51.076;13.722;2022-10-16T05:40:23;21.95;;;19.63;;
48263;SDS011;34086;51.076;13.722;2022-10-16T05:41:23;22.45;;;20.05;;
48263;SDS011;34086;51.076;13.722;2022-10-16T05:42:26;23.27;;;20.02;;
48263;SDS011;34086;51.076;13.722;2022-10-16T05:43:27;21.80;;;19.40;;
48263;SDS011;34086;51.076;13.722;2022-10-16T05:44:28;23.08;;;19.58;;
48263;SDS011;34086;51.076;13.722;2022-10-16T05:45:29;22.35;;;19.77;;
48263;SDS011;34086;51.076;13.722;2022-10-16T05:46:30;22.90;;;20.33;;
48263;SDS011;34086;51.076;13.722;2022-10-16T05:47:31;22.60;;;20.20;;
48263;SDS011;34086;51.076;13.722;2022-10-16T05:48:32;22.70;;;19.85;;
48263;SDS011;34086;51.076;13.722;2022-10-16T05:49:36;22.23;;;19.83;;
48263;SDS011;34086;51.076;13.722;2022-10-16T05:50:39;21.55;;;19.20;;
48263;SDS011;34086;51.076;13.722;2022-10-16T05:51:40;20.85;;;18.63;;
48263;SDS011;34086;51.076;13.722;2022-10-16T05:52:41;21.30;;;19.00;;
48263;SDS011;34086;51.076;13.722;2022-10-16T05:53:42;20.88;;;18.67;;
48263;SDS011;34086;51.076;13.722;2022-10-16T05:54:43;21.20;;;18.92;;
48263;SDS011;34086;51.076;13.722;2022-10-16T05:55:44;20.98;;;18.73;;
48263;SDS011;34086;51.076;13.722;2022-10-16T05:56:52;21.92;;;19.58;;
48263;SDS011;34086;51.076;13.722;2022-10-16T05:57:54;21.13;;;18.80;;
48263;SDS011;34086;51.076;13.722;2022-10-16T05:58:55;20.60;;;18.50;;
48263;SDS011;34086;51.076;13.722;2022-10-16T05:59:55;20.50;;;18.40;;
48263;SDS011;34086;51.076;13.722;2022-10-16T06:00:57;20.00;;;17.92;;
48263;SDS011;34086;51.076;13.722;2022-10-16T06:02:00;20.30;;;18.13;;
48263;SDS011;34086;51.076;13.722;2022-10-16T06:03:00;20.52;;;18.33;;
48263;SDS011;34086;51.076;13.722;2022-10-16T06:04:02;20.15;;;18.05;;
48263;SDS011;34086;51.076;13.722;2022-10-16T06:05:03;20.58;;;18.38;;
48263;SDS011;34086;51.076;13.722;2022-10-16T06:06:11;20.17;;;18.05;;
48263;SDS011;34086;51.076;13.722;2022-10-16T06:07:13;20.33;;;18.13;;
48263;SDS011;34086;51.076;13.722;2022-10-16T06:08:14;19.92;;;17.83;;
48263;SDS011;34086;51.076;13.722;2022-10-16T06:09:14;19.30;;;17.30;;
48263;SDS011;34086;51.076;13.722;2022-10-16T06:10:15;20.20;;;17.55;;
48263;SDS011;34086;51.076;13.722;2022-10-16T06:11:17;18.85;;;16.90;;
48263;SDS011;34086;51.076;13.722;2022-10-16T06:12:20;19.17;;;17.17;;
48263;SDS011;34086;51.076;13.722;2022-10-16T06:13:20;19.20;;;17.05;;
48263;SDS011;34086;51.076;13.722;2022-10-16T06:14:21;18.67;;;16.77;;
48263;SDS011;34086;51.076;13.722;2022-10-16T06:15:22;18.85;;;16.90;;
48263;SDS011;34086;51.076;13.722;2022-10-16T06:16:23;19.52;;;17.48;;